createdAt,value
2017-07-27T00:02:12.612Z,23.20
2017-07-27T00:04:50.023Z,24.40
2017-07-27T00:07:24.336Z,21.63
2017-07-27T00:09:54.775Z,24.33
2017-07-27T00:12:25.542Z,24.80
2017-07-27T00:15:05.465Z,22.80
2017-07-27T00:17:45.403Z,23.60
2017-07-27T00:20:26.137Z,23.93
2017-07-27T00:22:59.991Z,22.80
2017-07-27T00:25:36.823Z,23.90
2017-07-27T00:28:12.221Z,23.70
2017-07-27T00:30:49.964Z,25.13
2017-07-27T00:33:20.568Z,24.60
2017-07-27T00:35:51.207Z,25.70
2017-07-27T00:38:21.572Z,26.80
2017-07-27T00:40:52.036Z,24.80
2017-07-27T00:43:23.265Z,28.43
2017-07-27T00:45:53.632Z,26.03
2017-07-27T00:48:24.316Z,26.13
2017-07-27T00:50:54.896Z,28.20
2017-07-27T00:53:25.408Z,29.67
2017-07-27T00:55:55.742Z,28.00
2017-07-27T00:58:26.040Z,26.10
2017-07-27T01:00:56.470Z,30.00
2017-07-27T01:03:26.999Z,28.20
2017-07-27T01:05:57.389Z,27.57
2017-07-27T01:08:27.751Z,29.03
2017-07-27T01:10:58.288Z,32.47
2017-07-27T01:13:29.228Z,30.77
2017-07-27T01:16:00.195Z,29.60
2017-07-27T01:18:31.044Z,32.60
2017-07-27T01:21:01.551Z,28.67
2017-07-27T01:23:32.864Z,29.77
2017-07-27T01:26:03.231Z,31.20
2017-07-27T01:28:33.543Z,30.40
2017-07-27T01:31:04.798Z,30.37
2017-07-27T01:33:35.915Z,29.40
2017-07-27T01:36:06.707Z,31.20
2017-07-27T01:38:37.034Z,31.63
2017-07-27T01:41:07.488Z,31.10
2017-07-27T01:43:37.855Z,28.97
2017-07-27T01:46:08.573Z,29.63
2017-07-27T01:48:38.896Z,31.67
2017-07-27T01:51:10.477Z,31.50
2017-07-27T01:53:41.656Z,31.37
2017-07-27T01:56:11.985Z,31.50
2017-07-27T01:58:51.830Z,32.60
2017-07-27T02:01:27.456Z,29.67
2017-07-27T02:04:07.250Z,27.50
2017-07-27T02:06:42.457Z,30.03
2017-07-27T02:09:18.917Z,30.60
2017-07-27T02:11:55.496Z,32.57
2017-07-27T02:14:32.791Z,29.30
2017-07-27T02:17:06.344Z,29.97
2017-07-27T02:19:36.875Z,28.93
2017-07-27T02:22:09.511Z,28.83
2017-07-27T02:24:39.966Z,28.67
2017-07-27T02:27:10.436Z,32.13
2017-07-27T02:29:41.666Z,28.63
2017-07-27T02:32:12.136Z,30.07
2017-07-27T02:34:43.394Z,31.20
2017-07-27T02:37:14.029Z,29.37
2017-07-27T02:39:44.527Z,30.50
2017-07-27T02:42:15.689Z,28.93
2017-07-27T02:44:46.268Z,29.67
2017-07-27T02:47:16.731Z,30.87
2017-07-27T02:49:47.748Z,30.23
2017-07-27T02:52:18.419Z,29.33
2017-07-27T02:54:48.819Z,31.20
2017-07-27T02:57:19.248Z,28.17
2017-07-27T02:59:49.744Z,29.93
2017-07-27T03:02:20.063Z,30.10
2017-07-27T03:04:50.528Z,27.67
2017-07-27T03:07:20.977Z,30.37
2017-07-27T03:09:52.196Z,30.90
2017-07-27T03:12:22.760Z,29.93
2017-07-27T03:14:53.980Z,29.73
2017-07-27T03:17:24.508Z,31.83
2017-07-27T03:19:55.147Z,28.90
2017-07-27T03:22:26.469Z,30.77
2017-07-27T03:24:56.851Z,27.90
2017-07-27T03:27:28.020Z,28.40
2017-07-27T03:29:58.331Z,26.20
2017-07-27T03:32:28.743Z,30.17
2017-07-27T03:35:00.198Z,31.77
2017-07-27T03:37:31.652Z,30.60
2017-07-27T03:40:02.813Z,27.60
2017-07-27T03:42:33.260Z,29.80
2017-07-27T03:45:03.642Z,27.47
2017-07-27T03:47:34.180Z,30.60
2017-07-27T03:50:04.377Z,28.27
2017-07-27T03:52:35.555Z,27.30
2017-07-27T03:55:06.503Z,28.67
2017-07-27T03:57:37.883Z,29.53
2017-07-27T04:00:08.528Z,26.57
2017-07-27T04:02:39.147Z,25.33
2017-07-27T04:05:09.607Z,25.27
2017-07-27T04:07:44.552Z,26.50
2017-07-27T04:10:19.785Z,25.73
2017-07-27T04:12:59.382Z,25.07
2017-07-27T04:15:33.416Z,25.23
2017-07-27T04:18:03.796Z,25.70
2017-07-27T04:20:34.207Z,27.03
2017-07-27T04:23:04.827Z,25.63
2017-07-27T04:25:35.290Z,24.97
2017-07-27T04:28:10.835Z,23.33
2017-07-27T04:30:48.062Z,25.50
2017-07-27T04:33:19.004Z,23.27
2017-07-27T04:35:51.603Z,28.10
2017-07-27T04:38:22.396Z,26.00
2017-07-27T04:40:52.794Z,26.20
2017-07-27T04:43:23.347Z,26.37
2017-07-27T04:45:54.223Z,24.60
2017-07-27T04:48:30.189Z,24.50
2017-07-27T04:51:00.652Z,23.13
2017-07-27T04:53:31.213Z,23.93
2017-07-27T04:56:02.343Z,24.30
2017-07-27T04:58:39.531Z,22.10
2017-07-27T05:01:18.589Z,21.60
2017-07-27T05:03:56.931Z,23.83
2017-07-27T05:06:27.404Z,21.57
2017-07-27T05:08:58.557Z,23.60
2017-07-27T05:11:29.704Z,23.07
2017-07-27T05:14:01.047Z,22.03
2017-07-27T05:16:31.967Z,22.20
2017-07-27T05:19:02.253Z,21.23
2017-07-27T05:21:32.779Z,21.33
2017-07-27T05:24:05.108Z,20.93
2017-07-27T05:26:35.721Z,20.13
2017-07-27T05:29:17.338Z,22.00
2017-07-27T05:31:58.194Z,21.37
2017-07-27T05:37:24.430Z,18.73
2017-07-27T05:40:09.015Z,20.53
2017-07-27T05:42:49.657Z,21.43
2017-07-27T05:45:34.959Z,19.73
2017-07-27T05:48:15.093Z,20.50
2017-07-27T05:50:58.427Z,19.50
2017-07-27T05:53:40.364Z,18.57
2017-07-27T05:56:22.995Z,19.73
2017-07-27T05:59:02.906Z,19.60
2017-07-27T06:01:41.503Z,19.23
2017-07-27T06:04:19.964Z,19.50
2017-07-27T06:06:50.800Z,17.50
2017-07-27T06:09:21.483Z,17.23
2017-07-27T06:11:57.212Z,18.00
2017-07-27T06:14:35.143Z,17.67
2017-07-27T06:17:13.602Z,21.10
2017-07-27T06:19:45.635Z,19.17
2017-07-27T06:22:16.249Z,16.83
2017-07-27T06:24:46.729Z,21.97
2017-07-27T06:27:17.312Z,18.57
2017-07-27T06:29:47.859Z,21.60
2017-07-27T06:32:19.340Z,19.67
2017-07-27T06:34:49.859Z,19.10
2017-07-27T06:37:20.241Z,18.70
2017-07-27T06:39:50.719Z,21.00
2017-07-27T06:42:21.271Z,20.70
2017-07-27T06:44:52.197Z,18.37
2017-07-27T06:47:28.125Z,21.10
2017-07-27T06:50:04.794Z,27.67
2017-07-27T06:52:42.859Z,25.10
2017-07-27T06:55:19.728Z,16.90
2017-07-27T06:57:54.063Z,18.37
2017-07-27T07:00:24.860Z,19.23
2017-07-27T07:02:55.170Z,18.93
2017-07-27T07:05:25.619Z,22.20
2017-07-27T07:07:56.131Z,19.70
2017-07-27T07:10:26.383Z,17.03
2017-07-27T07:12:56.847Z,20.07
2017-07-27T07:15:27.328Z,18.10
2017-07-27T07:17:57.989Z,18.20
2017-07-27T07:20:28.976Z,17.87
2017-07-27T07:22:59.685Z,18.87
2017-07-27T07:25:30.062Z,17.60
2017-07-27T07:28:00.620Z,21.43
2017-07-27T07:30:31.122Z,19.23
2017-07-27T07:33:02.332Z,20.80
2017-07-27T07:35:32.725Z,20.53
2017-07-27T07:38:03.251Z,20.50
2017-07-27T07:40:33.855Z,17.20
2017-07-27T07:43:04.458Z,19.20
2017-07-27T07:45:35.027Z,19.63
2017-07-27T07:48:05.489Z,18.10
2017-07-27T07:50:36.715Z,19.27
2017-07-27T07:53:07.263Z,19.33
2017-07-27T07:55:38.920Z,18.93
2017-07-27T07:58:10.086Z,19.07
2017-07-27T08:00:41.257Z,17.07
2017-07-27T08:03:11.905Z,18.50
2017-07-27T08:05:42.183Z,17.47
2017-07-27T08:08:13.453Z,18.77
2017-07-27T08:10:43.821Z,18.90
2017-07-27T08:13:14.383Z,19.70
2017-07-27T08:15:44.996Z,19.90
2017-07-27T08:18:15.407Z,20.00
2017-07-27T08:20:45.824Z,19.20
2017-07-27T08:23:16.951Z,21.33
2017-07-27T08:25:47.420Z,18.60
2017-07-27T08:28:17.897Z,19.87
2017-07-27T08:30:55.053Z,20.13
2017-07-27T08:33:26.000Z,20.53
2017-07-27T08:35:57.219Z,21.10
2017-07-27T08:38:27.932Z,18.43
2017-07-27T08:40:58.375Z,19.23
2017-07-27T08:43:28.634Z,19.23
2017-07-27T08:45:58.980Z,21.23
2017-07-27T08:48:29.392Z,17.97
2017-07-27T08:51:00.570Z,18.47
2017-07-27T08:53:31.317Z,19.27
2017-07-27T08:56:02.121Z,19.33
2017-07-27T08:58:33.015Z,19.20
2017-07-27T09:01:08.951Z,20.30
2017-07-27T09:03:43.794Z,20.20
2017-07-27T09:06:19.523Z,20.50
2017-07-27T09:08:56.286Z,18.10
2017-07-27T09:11:26.577Z,17.47
2017-07-27T09:13:57.043Z,18.20
2017-07-27T09:16:27.537Z,19.97
2017-07-27T09:18:58.084Z,17.03
2017-07-27T09:21:28.784Z,17.63
2017-07-27T09:23:59.666Z,16.60
2017-07-27T09:26:30.690Z,17.00
2017-07-27T09:29:01.240Z,17.67
2017-07-27T09:31:32.376Z,17.90
2017-07-27T09:34:02.815Z,17.60
2017-07-27T09:36:33.842Z,17.23
2017-07-27T09:39:04.146Z,16.63
2017-07-27T09:41:35.437Z,14.93
2017-07-27T09:44:06.609Z,15.37
2017-07-27T09:46:37.339Z,14.80
2017-07-27T09:49:07.770Z,15.40
2017-07-27T09:51:38.252Z,15.00
2017-07-27T09:54:08.729Z,16.80
2017-07-27T09:56:39.428Z,15.73
2017-07-27T09:59:11.750Z,14.90
2017-07-27T10:01:42.167Z,13.17
2017-07-27T10:04:12.567Z,16.63
2017-07-27T10:06:48.683Z,15.43
2017-07-27T10:09:20.375Z,14.87
2017-07-27T10:11:51.457Z,14.40
2017-07-27T10:14:30.643Z,15.00
2017-07-27T10:17:01.568Z,14.03
2017-07-27T10:19:32.255Z,13.50
2017-07-27T10:22:02.697Z,13.37
2017-07-27T10:24:33.713Z,13.60
2017-07-27T10:27:04.883Z,13.53
2017-07-27T10:29:40.935Z,13.17
2017-07-27T10:32:17.074Z,14.30
2017-07-27T10:34:56.613Z,12.73
2017-07-27T10:37:27.841Z,12.73
2017-07-27T10:39:58.201Z,14.00
2017-07-27T10:42:28.492Z,11.67
2017-07-27T10:44:59.156Z,14.33
2017-07-27T10:47:30.283Z,12.83
2017-07-27T10:50:08.610Z,14.07
2017-07-27T10:52:39.337Z,14.27
2017-07-27T10:55:10.158Z,11.60
2017-07-27T10:57:48.124Z,11.40
2017-07-27T11:00:19.660Z,13.83
2017-07-27T11:02:53.108Z,14.30
2017-07-27T11:05:23.896Z,15.20
2017-07-27T11:07:56.905Z,13.37
2017-07-27T11:10:35.360Z,14.23
2017-07-27T11:13:14.300Z,14.57
2017-07-27T11:15:51.293Z,15.00
2017-07-27T11:18:30.279Z,16.13
2017-07-27T11:21:07.713Z,14.37
2017-07-27T11:23:44.588Z,14.70
2017-07-27T11:26:15.759Z,13.67
2017-07-27T11:28:46.404Z,25.10
2017-07-27T11:31:17.263Z,21.20
2017-07-27T11:33:48.524Z,25.07
2017-07-27T11:36:18.988Z,18.80
2017-07-27T11:38:50.217Z,15.93
2017-07-27T11:41:20.590Z,14.70
2017-07-27T11:43:51.063Z,13.33
2017-07-27T11:46:21.639Z,17.10
2017-07-27T11:48:52.791Z,15.77
2017-07-27T11:51:23.148Z,17.57
2017-07-27T11:53:53.620Z,17.27
2017-07-27T11:56:24.812Z,18.03
2017-07-27T11:58:55.190Z,17.07
2017-07-27T12:01:25.635Z,16.13
2017-07-27T12:03:57.113Z,18.33
2017-07-27T12:06:27.745Z,17.70
2017-07-27T12:08:59.364Z,15.03
2017-07-27T12:11:29.703Z,14.20
2017-07-27T12:14:00.944Z,14.33
2017-07-27T12:16:31.480Z,17.07
2017-07-27T12:19:02.976Z,17.33
2017-07-27T12:21:33.353Z,19.00
2017-07-27T12:24:04.440Z,18.43
2017-07-27T12:26:35.236Z,16.67
2017-07-27T12:29:06.463Z,16.10
2017-07-27T12:31:37.115Z,14.60
2017-07-27T12:34:08.344Z,15.47
2017-07-27T12:36:38.611Z,16.40
2017-07-27T12:39:09.101Z,15.03
2017-07-27T12:41:39.439Z,15.10
2017-07-27T12:44:09.847Z,16.60
2017-07-27T12:46:40.104Z,17.67
2017-07-27T12:49:12.593Z,18.37
2017-07-27T12:51:47.972Z,17.53
2017-07-27T12:54:24.205Z,19.87
2017-07-27T12:56:58.028Z,18.90
2017-07-27T12:59:32.758Z,23.57
2017-07-27T13:02:10.435Z,23.97
2017-07-27T13:04:42.676Z,20.60
2017-07-27T13:07:24.767Z,21.33
2017-07-27T13:10:01.796Z,19.17
2017-07-27T13:12:39.546Z,19.03
2017-07-27T13:15:16.428Z,18.00
2017-07-27T13:17:53.569Z,18.87
2017-07-27T13:20:25.896Z,19.20
2017-07-27T13:22:56.463Z,19.00
2017-07-27T13:28:23.424Z,18.47
2017-07-27T13:30:55.097Z,21.10
2017-07-27T13:33:27.711Z,23.20
2017-07-27T13:36:02.856Z,19.50
2017-07-27T13:38:34.189Z,19.73
2017-07-27T13:41:13.001Z,19.50
2017-07-27T13:43:45.174Z,17.70
2017-07-27T13:46:15.535Z,18.17
2017-07-27T13:48:52.921Z,21.07
2017-07-27T13:51:28.101Z,17.50
2017-07-27T13:54:08.984Z,18.87
2017-07-27T13:56:51.175Z,18.93
2017-07-27T13:59:26.045Z,17.50
2017-07-27T14:02:02.584Z,17.23
2017-07-27T14:04:38.555Z,16.93
2017-07-27T14:07:11.768Z,20.00
2017-07-27T14:09:46.827Z,17.50
2017-07-27T14:12:23.068Z,17.00
2017-07-27T14:14:58.958Z,16.63
2017-07-27T14:17:34.116Z,17.80
2017-07-27T14:20:09.149Z,17.87
2017-07-27T14:22:46.964Z,17.30
2017-07-27T14:25:22.213Z,17.87
2017-07-27T14:27:57.692Z,19.60
2017-07-27T14:30:33.212Z,19.07
2017-07-27T14:33:07.311Z,18.00
2017-07-27T14:35:42.184Z,19.37
2017-07-27T14:38:17.528Z,20.70
2017-07-27T14:40:52.258Z,18.97
2017-07-27T14:43:22.820Z,19.83
2017-07-27T14:45:53.558Z,19.60
2017-07-27T14:48:25.372Z,20.77
2017-07-27T14:50:56.209Z,19.90
2017-07-27T14:53:26.597Z,19.90
2017-07-27T14:56:05.697Z,18.60
2017-07-27T14:58:41.477Z,17.97
2017-07-27T15:01:17.864Z,18.33
2017-07-27T15:03:54.985Z,18.40
2017-07-27T15:06:25.801Z,18.00
2017-07-27T15:08:56.917Z,17.27
2017-07-27T15:11:27.711Z,17.00
2017-07-27T15:13:59.332Z,18.10
2017-07-27T15:16:39.019Z,18.50
2017-07-27T15:19:12.547Z,18.13
2017-07-27T15:21:49.938Z,17.33
2017-07-27T15:24:23.907Z,17.70
2017-07-27T15:26:54.556Z,18.07
2017-07-27T15:29:25.129Z,16.67
2017-07-27T15:31:55.564Z,17.67
2017-07-27T15:34:26.819Z,17.57
2017-07-27T15:36:58.072Z,17.87
2017-07-27T15:39:28.241Z,17.30
2017-07-27T15:42:09.818Z,18.10
2017-07-27T15:44:52.521Z,18.60
2017-07-27T15:47:33.168Z,18.10
2017-07-27T15:50:16.921Z,18.70
2017-07-27T15:53:00.672Z,17.80
2017-07-27T15:55:41.989Z,18.30
2017-07-27T15:58:23.595Z,18.27
2017-07-27T16:00:56.442Z,17.37
2017-07-27T16:03:33.200Z,19.40
2017-07-27T16:06:10.571Z,18.43
2017-07-27T16:08:45.451Z,18.80
2017-07-27T16:11:24.513Z,17.60
2017-07-27T16:13:59.079Z,19.10
2017-07-27T16:16:30.881Z,18.50
2017-07-27T16:19:01.986Z,17.77
2017-07-27T16:21:32.804Z,19.70
2017-07-27T16:24:03.789Z,17.87
2017-07-27T16:26:35.595Z,16.13
2017-07-27T16:29:06.689Z,17.33
2017-07-27T16:31:38.921Z,17.80
2017-07-27T16:34:10.202Z,18.07
2017-07-27T16:36:41.044Z,18.90
2017-07-27T16:39:12.086Z,18.03
2017-07-27T16:41:46.761Z,19.57
2017-07-27T16:44:24.539Z,18.30
2017-07-27T16:47:00.834Z,16.27
2017-07-27T16:49:35.027Z,18.77
2017-07-27T16:52:05.761Z,17.67
2017-07-27T16:54:36.352Z,18.30
2017-07-27T16:57:13.767Z,17.30
2017-07-27T16:59:52.500Z,14.93
2017-07-27T17:02:29.438Z,14.13
2017-07-27T17:05:06.802Z,16.90
2017-07-27T17:07:39.760Z,18.40
2017-07-27T17:10:14.180Z,18.33
2017-07-27T17:12:45.315Z,17.43
2017-07-27T17:15:16.242Z,16.73
2017-07-27T17:17:50.338Z,17.27
2017-07-27T17:20:28.289Z,15.63
2017-07-27T17:23:03.125Z,20.87
2017-07-27T17:25:34.504Z,17.73
2017-07-27T17:28:04.847Z,16.00
2017-07-27T17:30:36.008Z,18.90
2017-07-27T17:33:06.717Z,17.30
2017-07-27T17:35:37.348Z,18.90
2017-07-27T17:38:08.060Z,18.10
2017-07-27T17:40:39.141Z,18.57
2017-07-27T17:43:10.586Z,18.77
2017-07-27T17:45:41.948Z,18.00
2017-07-27T17:48:13.758Z,18.63
2017-07-27T17:50:44.289Z,18.47
2017-07-27T17:53:15.088Z,16.10
2017-07-27T17:55:45.503Z,17.97
2017-07-27T17:58:16.627Z,16.93
2017-07-27T18:00:46.996Z,17.70
2017-07-27T18:03:17.444Z,15.87
2017-07-27T18:05:47.784Z,15.50
2017-07-27T18:08:18.290Z,19.00
2017-07-27T18:10:49.460Z,17.33
2017-07-27T18:13:19.833Z,17.60
2017-07-27T18:15:50.257Z,18.73
2017-07-27T18:18:25.913Z,17.93
2017-07-27T18:21:00.867Z,16.97
2017-07-27T18:26:25.678Z,15.17
2017-07-27T18:29:00.686Z,16.17
2017-07-27T18:31:36.769Z,17.97
2017-07-27T18:34:14.441Z,16.20
2017-07-27T18:36:51.644Z,17.43
2017-07-27T18:39:22.891Z,17.17
2017-07-27T18:42:03.211Z,17.70
2017-07-27T18:44:37.651Z,16.23
2017-07-27T18:47:14.719Z,16.37
2017-07-27T18:49:51.636Z,16.87
2017-07-27T18:52:22.075Z,16.27
2017-07-27T18:55:00.399Z,17.27
2017-07-27T18:57:36.552Z,18.20
2017-07-27T19:00:14.160Z,17.97
2017-07-27T19:02:52.596Z,18.23
2017-07-27T19:05:23.101Z,16.93
2017-07-27T19:08:01.428Z,16.53
2017-07-27T19:10:36.246Z,15.20
2017-07-27T19:13:12.617Z,15.93
2017-07-27T19:15:52.815Z,16.93
2017-07-27T19:18:24.031Z,16.97
2017-07-27T19:21:00.079Z,17.10
2017-07-27T19:23:35.684Z,17.70
2017-07-27T19:26:15.786Z,16.50
2017-07-27T19:28:55.107Z,17.13
2017-07-27T19:31:26.252Z,16.73
2017-07-27T19:34:03.075Z,17.17
2017-07-27T19:36:37.204Z,16.20
2017-07-27T19:39:12.471Z,15.30
2017-07-27T19:41:44.619Z,16.43
2017-07-27T19:44:26.293Z,15.97
2017-07-27T19:47:01.756Z,15.93
2017-07-27T19:49:41.193Z,16.00
2017-07-27T19:52:17.753Z,13.40
2017-07-27T19:54:48.234Z,15.70
2017-07-27T19:57:18.531Z,16.60
2017-07-27T19:59:48.779Z,16.70
2017-07-27T20:02:19.091Z,14.87
2017-07-27T20:04:49.556Z,17.40
2017-07-27T20:07:20.700Z,16.60
2017-07-27T20:09:51.787Z,19.07
2017-07-27T20:12:22.248Z,17.93
2017-07-27T20:14:52.843Z,17.30
2017-07-27T20:17:31.073Z,16.40
2017-07-27T20:20:10.854Z,16.90
2017-07-27T20:22:50.635Z,16.00
2017-07-27T20:25:21.047Z,17.80
2017-07-27T20:27:51.413Z,15.00
2017-07-27T20:30:21.887Z,16.80
2017-07-27T20:33:02.092Z,19.27
2017-07-27T20:35:36.923Z,17.37
2017-07-27T20:38:13.566Z,16.90
2017-07-27T20:40:51.865Z,18.50
2017-07-27T20:43:22.351Z,18.50
2017-07-27T20:45:57.400Z,19.13
2017-07-27T20:48:33.232Z,19.53
2017-07-27T20:51:10.909Z,18.10
2017-07-27T20:53:49.269Z,18.30
2017-07-27T20:56:26.064Z,18.97
2017-07-27T20:59:02.352Z,20.93
2017-07-27T21:01:39.050Z,23.97
2017-07-27T21:06:57.008Z,26.57
2017-07-27T21:09:34.902Z,31.27
2017-07-27T21:12:11.733Z,38.43
2017-07-27T21:14:47.992Z,24.70
2017-07-27T21:17:21.272Z,22.00
2017-07-27T21:19:51.728Z,20.33
2017-07-27T21:22:22.316Z,20.20
2017-07-27T21:24:52.731Z,19.33
2017-07-27T21:27:23.280Z,18.00
2017-07-27T21:29:53.544Z,19.00
2017-07-27T21:32:24.187Z,21.57
2017-07-27T21:34:57.947Z,19.47
2017-07-27T21:37:34.132Z,18.10
2017-07-27T21:40:07.625Z,19.30
2017-07-27T21:42:44.945Z,21.37
2017-07-27T21:45:15.639Z,22.00
2017-07-27T21:47:46.011Z,27.30
2017-07-27T21:50:25.008Z,28.43
2017-07-27T21:53:00.264Z,35.70
2017-07-27T21:55:34.739Z,30.73
2017-07-27T21:58:05.512Z,32.00
2017-07-27T22:00:36.056Z,32.07
2017-07-27T22:03:06.425Z,25.30
2017-07-27T22:05:41.304Z,27.13
2017-07-27T22:08:17.017Z,27.60
2017-07-27T22:10:53.576Z,33.60
2017-07-27T22:13:30.301Z,35.43
2017-07-27T22:16:00.745Z,32.30
2017-07-27T22:18:31.317Z,31.70
2017-07-27T22:21:02.395Z,30.03
2017-07-27T22:23:32.784Z,34.13
2017-07-27T22:26:03.021Z,31.83
2017-07-27T22:28:33.272Z,33.20
2017-07-27T22:31:04.572Z,27.30
2017-07-27T22:33:36.866Z,27.43
2017-07-27T22:36:07.981Z,27.70
2017-07-27T22:38:38.533Z,29.40
2017-07-27T22:41:09.534Z,30.03
2017-07-27T22:43:40.033Z,27.47
2017-07-27T22:46:10.394Z,29.73
2017-07-27T22:48:40.943Z,27.83
2017-07-27T22:51:11.379Z,27.77
2017-07-27T22:53:42.355Z,28.90
2017-07-27T22:56:12.840Z,28.70
2017-07-27T22:58:43.112Z,31.40
2017-07-27T23:01:13.510Z,28.50
2017-07-27T23:03:44.581Z,27.43
2017-07-27T23:06:26.729Z,27.97
2017-07-27T23:09:07.682Z,27.07
2017-07-27T23:11:45.400Z,26.30
2017-07-27T23:14:27.929Z,24.80
2017-07-27T23:16:58.593Z,25.00
2017-07-27T23:19:29.241Z,27.47
2017-07-27T23:22:07.315Z,26.90
2017-07-27T23:24:44.556Z,24.97
2017-07-27T23:27:20.700Z,24.43
2017-07-27T23:29:58.056Z,27.60
2017-07-27T23:32:28.959Z,26.53
2017-07-27T23:34:59.432Z,27.07
2017-07-27T23:37:29.867Z,26.93
2017-07-27T23:40:00.068Z,26.87
2017-07-27T23:42:30.568Z,27.30
2017-07-27T23:45:01.043Z,27.80
2017-07-27T23:47:31.360Z,27.00
2017-07-27T23:50:01.810Z,30.10
2017-07-27T23:52:32.049Z,27.33
2017-07-27T23:55:05.345Z,26.97
2017-07-27T23:57:36.080Z,30.33
